Time;durP1;ratioP1;P1;durP2;ratioP2;P2;SDS_P1;SDS_P2;PMS_P1;PMS_P2;Temp;Humidity;BMP_temperature;BMP_pressure;BME280_temperature;BME280_humidity;BME280_pressure;Samples;Min_cycle;Max_cycle;Signal;HPM_P1;HPM_P2
2022/08/11 00:01:06;;;;;;;2.67;2.47;;;;;;;;;;5116429;28;20224;-85
2022/08/11 00:03:33;;;;;;;4.77;2.33;;;;;;;;;;5114157;28;20688;-85
2022/08/11 00:06:00;;;;;;;2.40;2.27;;;;;;;;;;5116599;28;20224;-85
2022/08/11 00:08:29;;;;;;;3.70;2.40;;;;;;;;;;5115991;28;20213;-83
2022/08/11 00:10:58;;;;;;;4.00;2.63;;;;;;;;;;5115567;28;20636;-83
2022/08/11 00:13:34;;;;;;;2.73;2.43;;;;;;;;;;5115559;28;20666;-84
2022/08/11 00:16:02;;;;;;;2.93;2.37;;;;;;;;;;5115335;28;20336;-84
2022/08/11 00:18:30;;;;;;;2.63;2.43;;;;;;;;;;5115604;28;20192;-85
2022/08/11 00:20:59;;;;;;;2.50;2.30;;;;;;;;;;5115104;28;20580;-84
2022/08/11 00:23:26;;;;;;;3.77;2.37;;;;;;;;;;5116641;28;20206;-85
2022/08/11 00:25:53;;;;;;;2.27;2.17;;;;;;;;;;5115143;28;20206;-84
2022/08/11 00:28:25;;;;;;;5.00;2.60;;;;;;;;;;5115571;28;20199;-84
2022/08/11 00:30:54;;;;;;;2.37;2.27;;;;;;;;;;5115288;28;20230;-85
2022/08/11 00:33:24;;;;;;;3.50;2.13;;;;;;;;;;5115477;28;20206;-84
2022/08/11 00:35:51;;;;;;;2.40;2.20;;;;;;;;;;5115051;28;20202;-84
2022/08/11 00:38:23;;;;;;;5.77;2.30;;;;;;;;;;5113932;28;20192;-85
2022/08/11 00:40:55;;;;;;;2.90;2.60;;;;;;;;;;5114754;28;20280;-84
2022/08/11 00:43:25;;;;;;;4.27;2.93;;;;;;;;;;5097084;28;20327;-84
2022/08/11 00:46:15;;;;;;;2.77;2.50;;;;;;;;;;5115633;28;20203;-85
2022/08/11 00:48:50;;;;;;;3.10;2.20;;;;;;;;;;5113421;28;20196;-85
2022/08/11 00:51:25;;;;;;;2.60;2.40;;;;;;;;;;5114708;28;20218;-84
2022/08/11 00:54:03;;;;;;;2.40;2.20;;;;;;;;;;5113426;28;20187;-86
2022/08/11 00:57:04;;;;;;;2.47;2.17;;;;;;;;;;5115478;28;20229;-84
2022/08/11 01:00:04;;;;;;;2.37;2.17;;;;;;;;;;5111090;28;20238;-84
2022/08/11 01:03:11;;;;;;;2.37;2.23;;;;;;;;;;5099228;28;20195;-85
2022/08/11 01:06:16;;;;;;;3.03;2.67;;;;;;;;;;5110110;28;20285;-85
2022/08/11 01:09:12;;;;;;;2.40;2.30;;;;;;;;;;5082208;28;20191;-84
2022/08/11 01:11:57;;;;;;;2.50;2.30;;;;;;;;;;5113805;28;20262;-85
2022/08/11 01:15:12;;;;;;;3.50;2.33;;;;;;;;;;5114768;28;20278;-85
2022/08/11 01:18:27;;;;;;;9.23;3.00;;;;;;;;;;5098973;28;20277;-85
2022/08/11 01:21:09;;;;;;;2.43;2.23;;;;;;;;;;5019396;28;20205;-82
2022/08/11 01:24:30;;;;;;;3.83;2.50;;;;;;;;;;5051433;28;20657;-84
2022/08/11 01:27:20;;;;;;;2.60;2.40;;;;;;;;;;5031554;28;20198;-84
2022/08/11 01:30:10;;;;;;;5.80;2.80;;;;;;;;;;5031730;28;20203;-84
2022/08/11 01:33:04;;;;;;;3.27;2.13;;;;;;;;;;5094006;28;20296;-84
2022/08/11 01:35:40;;;;;;;4.87;2.50;;;;;;;;;;5111997;28;20199;-85
2022/08/11 01:38:35;;;;;;;4.67;2.20;;;;;;;;;;5114026;28;20673;-84
2022/08/11 01:44:37;;;;;;;2.53;2.30;;;;;;;;;;5105374;28;20197;-85
2022/08/11 01:47:49;;;;;;;3.80;2.80;;;;;;;;;;5111555;28;20195;-87
2022/08/11 01:50:13;;;;;;;2.83;2.20;;;;;;;;;;5113759;28;20738;-85
2022/08/11 01:52:54;;;;;;;3.67;2.20;;;;;;;;;;5113959;28;20242;-85
2022/08/11 01:55:26;;;;;;;3.37;1.83;;;;;;;;;;5113462;28;20206;-85
2022/08/11 01:58:01;;;;;;;7.00;2.90;;;;;;;;;;5113680;28;20571;-85
2022/08/11 02:00:29;;;;;;;8.17;2.40;;;;;;;;;;5113356;28;20314;-86
2022/08/11 02:03:02;;;;;;;2.10;1.70;;;;;;;;;;5113790;28;20203;-84
2022/08/11 02:06:00;;;;;;;4.23;2.10;;;;;;;;;;5113907;28;20268;-84
2022/08/11 02:08:41;;;;;;;1.93;1.83;;;;;;;;;;5112116;28;20203;-85
2022/08/11 02:11:30;;;;;;;1.60;1.50;;;;;;;;;;5113246;28;20215;-85
2022/08/11 02:14:02;;;;;;;2.60;2.00;;;;;;;;;;5111707;28;20199;-85
2022/08/11 02:16:38;;;;;;;1.90;1.80;;;;;;;;;;5113507;28;20203;-85
2022/08/11 02:25:00;;;;;;;3.83;2.00;;;;;;;;;;5037290;28;20255;-87
2022/08/11 02:27:35;;;;;;;1.73;1.63;;;;;;;;;;5113258;28;20205;-84
2022/08/11 02:30:07;;;;;;;3.23;2.10;;;;;;;;;;5095221;28;20206;-86
2022/08/11 02:35:27;;;;;;;2.50;1.70;;;;;;;;;;5113028;28;20217;-85
2022/08/11 02:38:05;;;;;;;1.97;1.50;;;;;;;;;;5098381;28;20207;-86
2022/08/11 02:40:42;;;;;;;1.70;1.50;;;;;;;;;;5092445;28;20200;-84
2022/08/11 02:43:14;;;;;;;1.90;1.80;;;;;;;;;;5104562;28;20207;-84
2022/08/11 02:45:52;;;;;;;1.80;1.70;;;;;;;;;;5112210;28;20200;-84
2022/08/11 02:51:44;;;;;;;1.93;1.83;;;;;;;;;;5064439;28;20289;-84
2022/08/11 02:54:15;;;;;;;2.77;2.10;;;;;;;;;;5112980;28;20199;-85
2022/08/11 02:56:51;;;;;;;2.57;1.57;;;;;;;;;;5112857;28;20214;-84
2022/08/11 03:02:16;;;;;;;2.20;1.83;;;;;;;;;;5112997;28;20202;-85
2022/08/11 03:04:52;;;;;;;1.80;1.70;;;;;;;;;;5111240;28;20195;-85
2022/08/11 03:07:23;;;;;;;1.77;1.67;;;;;;;;;;5111650;28;20205;-85
2022/08/11 03:09:54;;;;;;;3.47;1.63;;;;;;;;;;5111529;28;20207;-86
2022/08/11 03:18:02;;;;;;;2.17;1.60;;;;;;;;;;5111698;28;20206;-83
2022/08/11 03:20:36;;;;;;;2.90;1.60;;;;;;;;;;5111551;28;20199;-87
2022/08/11 03:23:09;;;;;;;1.90;1.80;;;;;;;;;;5111227;28;20203;-83
2022/08/11 03:25:46;;;;;;;3.13;2.03;;;;;;;;;;5112370;28;20199;-87
2022/08/11 03:28:24;;;;;;;1.93;1.83;;;;;;;;;;5106680;28;20202;-83
2022/08/11 03:30:56;;;;;;;1.63;1.53;;;;;;;;;;5111395;28;20230;-82
2022/08/11 03:36:23;;;;;;;1.60;1.50;;;;;;;;;;5114076;28;20684;-84
2022/08/11 03:39:01;;;;;;;1.80;1.70;;;;;;;;;;5115737;28;20195;-84
2022/08/11 03:41:43;;;;;;;2.10;1.90;;;;;;;;;;5115313;28;20195;-83
2022/08/11 03:45:00;;;;;;;2.13;1.50;;;;;;;;;;5115295;28;20206;-87
2022/08/11 03:48:04;;;;;;;1.77;1.63;;;;;;;;;;5065380;28;20604;-82
2022/08/11 03:50:58;;;;;;;2.73;1.70;;;;;;;;;;5115490;28;20278;-84
2022/08/11 03:53:40;;;;;;;1.80;1.70;;;;;;;;;;5096312;28;20199;-84
2022/08/11 03:56:47;;;;;;;1.60;1.43;;;;;;;;;;5115073;28;20191;-86
2022/08/11 03:59:39;;;;;;;1.73;1.60;;;;;;;;;;5115226;28;20214;-85
2022/08/11 04:02:26;;;;;;;3.77;1.63;;;;;;;;;;5114985;28;20199;-85
2022/08/11 04:05:37;;;;;;;1.67;1.57;;;;;;;;;;5115254;28;20195;-85
2022/08/11 04:08:25;;;;;;;1.80;1.70;;;;;;;;;;5049441;28;20233;-84
2022/08/11 04:11:16;;;;;;;2.97;1.40;;;;;;;;;;5051773;28;20190;-81
2022/08/11 04:17:39;;;;;;;1.93;1.83;;;;;;;;;;5076293;28;20206;-80
2022/08/11 04:20:19;;;;;;;1.10;1.10;;;;;;;;;;5112757;28;20662;-80
2022/08/11 04:23:02;;;;;;;1.73;1.63;;;;;;;;;;5114730;28;20550;-80
2022/08/11 04:25:51;;;;;;;4.80;1.60;;;;;;;;;;5113930;28;20234;-79
2022/08/11 04:28:36;;;;;;;1.50;1.40;;;;;;;;;;5114808;28;20202;-79
2022/08/11 04:31:11;;;;;;;2.07;1.70;;;;;;;;;;5114180;28;20196;-79
2022/08/11 04:33:59;;;;;;;1.87;1.77;;;;;;;;;;5113790;28;20198;-79
2022/08/11 04:40:09;;;;;;;1.67;1.57;;;;;;;;;;5094524;28;20203;-79
2022/08/11 04:43:22;;;;;;;2.10;1.50;;;;;;;;;;5093742;28;20202;-79
2022/08/11 04:46:20;;;;;;;1.57;1.40;;;;;;;;;;5112696;28;20206;-77
2022/08/11 05:05:29;;;;;;;1.60;1.50;;;;;;;;;;5113273;28;20206;-79
2022/08/11 05:07:32;;;;;;;1.60;1.50;;;;;;;;;;5114295;28;20199;-79
2022/08/11 05:10:23;;;;;;;1.40;1.30;;;;;;;;;;5088998;28;20259;-78
2022/08/11 05:12:53;;;;;;;3.80;1.70;;;;;;;;;;5113036;28;20298;-79
2022/08/11 05:35:17;;;;;;;17.60;3.27;;;;;;;;;;5113459;28;20225;-79
2022/08/11 05:57:04;;;;;;;1.87;1.77;;;;;;;;;;5112313;28;20281;-79
2022/08/11 05:59:35;;;;;;;3.03;1.53;;;;;;;;;;5112342;28;20211;-79
2022/08/11 06:02:03;;;;;;;12.20;10.23;;;;;;;;;;5112322;28;20294;-78
2022/08/11 06:04:30;;;;;;;1.90;1.80;;;;;;;;;;5111911;28;20206;-78
2022/08/11 06:07:00;;;;;;;6.13;5.10;;;;;;;;;;5113148;28;20362;-79
2022/08/11 06:09:29;;;;;;;3.07;2.70;;;;;;;;;;5113202;28;20286;-78
2022/08/11 06:11:59;;;;;;;4.63;4.20;;;;;;;;;;5111364;28;20246;-79
2022/08/11 06:14:26;;;;;;;10.07;8.03;;;;;;;;;;5112184;28;20661;-79
2022/08/11 06:17:00;;;;;;;4.90;2.00;;;;;;;;;;5111949;28;20195;-79
2022/08/11 06:19:35;;;;;;;2.03;1.80;;;;;;;;;;5112611;28;20272;-79
2022/08/11 06:22:03;;;;;;;2.00;1.90;;;;;;;;;;5111573;28;20205;-79
2022/08/11 06:24:31;;;;;;;7.13;6.03;;;;;;;;;;5112234;28;20219;-79
2022/08/11 06:26:59;;;;;;;2.10;1.90;;;;;;;;;;5112066;28;20204;-80
2022/08/11 06:29:27;;;;;;;7.20;6.67;;;;;;;;;;5112486;28;20214;-79
2022/08/11 06:31:58;;;;;;;2.17;2.07;;;;;;;;;;5111644;28;20218;-79
2022/08/11 06:35:02;;;;;;;1.97;1.87;;;;;;;;;;5111702;28;20248;-78
2022/08/11 06:37:41;;;;;;;1.60;1.50;;;;;;;;;;5108852;28;20191;-79
2022/08/11 06:40:10;;;;;;;1.70;1.60;;;;;;;;;;5111821;28;20197;-79
2022/08/11 06:42:45;;;;;;;2.20;2.00;;;;;;;;;;5111603;28;20206;-79
2022/08/11 06:45:21;;;;;;;2.87;2.23;;;;;;;;;;5112005;28;20199;-79
2022/08/11 06:47:50;;;;;;;1.93;1.83;;;;;;;;;;5110995;28;20194;-79
2022/08/11 06:53:03;;;;;;;6.33;4.10;;;;;;;;;;5095851;28;20619;-79
2022/08/11 07:01:06;;;;;;;7.73;6.20;;;;;;;;;;5111117;28;20234;-77
2022/08/11 07:03:38;;;;;;;2.20;2.00;;;;;;;;;;5111539;28;20196;-78
2022/08/11 07:06:22;;;;;;;2.50;2.30;;;;;;;;;;5111299;28;20202;-79
2022/08/11 07:30:46;;;;;;;3.30;2.03;;;;;;;;;;5111833;28;20273;-79
2022/08/11 07:33:14;;;;;;;1.97;1.87;;;;;;;;;;5112409;28;20218;-79
2022/08/11 07:35:44;;;;;;;2.77;1.73;;;;;;;;;;5112139;28;20199;-78
2022/08/11 07:38:17;;;;;;;2.00;1.87;;;;;;;;;;5112426;28;20188;-79
2022/08/11 07:40:44;;;;;;;2.73;2.53;;;;;;;;;;5110806;28;20191;-79
2022/08/11 07:43:13;;;;;;;2.20;1.97;;;;;;;;;;5110922;28;20215;-80
2022/08/11 07:53:57;;;;;;;1.90;1.70;;;;;;;;;;5110949;28;20710;-78
2022/08/11 07:56:24;;;;;;;2.47;1.90;;;;;;;;;;5110474;28;20223;-79
2022/08/11 08:18:07;;;;;;;3.83;1.90;;;;;;;;;;5110453;28;20246;-79
2022/08/11 08:20:37;;;;;;;1.70;1.60;;;;;;;;;;5112809;28;20204;-79
2022/08/11 08:23:05;;;;;;;2.60;1.90;;;;;;;;;;5114432;28;20202;-79
2022/08/11 08:25:35;;;;;;;1.80;1.60;;;;;;;;;;5114067;28;20211;-78
2022/08/11 08:28:06;;;;;;;1.90;1.80;;;;;;;;;;5113980;28;20195;-79
2022/08/11 08:30:49;;;;;;;2.00;1.80;;;;;;;;;;5114247;28;20573;-81
2022/08/11 08:33:21;;;;;;;1.83;1.73;;;;;;;;;;5114160;28;20743;-79
2022/08/11 08:35:49;;;;;;;2.50;1.70;;;;;;;;;;5114090;28;20718;-79
2022/08/11 08:38:16;;;;;;;2.00;1.90;;;;;;;;;;5114931;28;20221;-79
2022/08/11 08:40:47;;;;;;;1.50;1.40;;;;;;;;;;5113685;28;20584;-80
2022/08/11 08:43:17;;;;;;;3.00;1.73;;;;;;;;;;5113579;28;20253;-79
2022/08/11 08:54:02;;;;;;;1.85;1.75;;;;;;;;;;5113987;28;20242;-79
2022/08/11 08:56:33;;;;;;;2.03;1.92;;;;;;;;;;5113936;28;20199;-80
2022/08/11 08:59:02;;;;;;;3.63;3.33;;;;;;;;;;5114178;28;20230;-79
2022/08/11 09:01:31;;;;;;;1.90;1.65;;;;;;;;;;5113401;28;20565;-80
2022/08/11 09:03:58;;;;;;;1.77;1.67;;;;;;;;;;5113745;28;20195;-78
2022/08/11 09:06:25;;;;;;;2.53;1.85;;;;;;;;;;5113741;28;20188;-79
2022/08/11 09:08:53;;;;;;;2.30;2.10;;;;;;;;;;5113781;28;20604;-79
2022/08/11 09:14:09;;;;;;;5.75;4.55;;;;;;;;;;5113730;28;20257;-79
2022/08/11 09:16:37;;;;;;;2.33;2.13;;;;;;;;;;5113542;28;20195;-79
2022/08/11 09:19:04;;;;;;;3.05;2.85;;;;;;;;;;5113352;28;20218;-79
2022/08/11 09:21:31;;;;;;;1.90;1.80;;;;;;;;;;5113142;28;20595;-79
2022/08/11 09:29:30;;;;;;;2.15;1.70;;;;;;;;;;5112619;28;20288;-80
2022/08/11 09:31:57;;;;;;;1.60;1.50;;;;;;;;;;5113582;28;20210;-79
2022/08/11 09:34:25;;;;;;;2.72;2.47;;;;;;;;;;5113779;28;20219;-79
2022/08/11 09:44:45;;;;;;;7.15;6.55;;;;;;;;;;5104803;28;20577;-79
2022/08/11 09:45:12;;;;;;;2.25;1.52;;;;;;;;;;5113054;28;20732;-79
2022/08/11 09:47:40;;;;;;;2.13;1.83;;;;;;;;;;5113305;28;20206;-79
2022/08/11 09:50:09;;;;;;;1.70;1.60;;;;;;;;;;5112065;28;20196;-79
2022/08/11 09:52:38;;;;;;;2.08;1.98;;;;;;;;;;5113216;28;20215;-79
2022/08/11 09:55:10;;;;;;;3.90;2.60;;;;;;;;;;5112577;28;20210;-80
2022/08/11 10:00:39;;;;;;;2.00;1.90;;;;;;;;;;5010114;28;20223;-78
2022/08/11 10:03:10;;;;;;;4.38;1.92;;;;;;;;;;5090105;28;20207;-79
2022/08/11 10:08:23;;;;;;;1.85;1.75;;;;;;;;;;5093248;28;20623;-78
2022/08/11 10:10:50;;;;;;;1.80;1.70;;;;;;;;;;5109981;28;20202;-78
2022/08/11 10:13:24;;;;;;;2.00;1.90;;;;;;;;;;5112295;28;20222;-78
2022/08/11 10:15:53;;;;;;;1.80;1.70;;;;;;;;;;5112564;28;20569;-79
2022/08/11 10:18:51;;;;;;;3.78;2.00;;;;;;;;;;5113209;28;20195;-78
2022/08/11 10:21:27;;;;;;;2.28;2.08;;;;;;;;;;5111737;28;20203;-78
2022/08/11 10:26:53;;;;;;;1.90;1.80;;;;;;;;;;5104161;28;20206;-78
2022/08/11 10:34:53;;;;;;;1.80;1.70;;;;;;;;;;5112209;28;20210;-78
2022/08/11 10:40:09;;;;;;;1.70;1.60;;;;;;;;;;5108901;28;20199;-78
2022/08/11 10:48:09;;;;;;;2.13;1.92;;;;;;;;;;5111500;28;20202;-78
2022/08/11 10:58:49;;;;;;;3.15;2.20;;;;;;;;;;5106129;28;20256;-79
2022/08/11 11:01:31;;;;;;;2.00;1.90;;;;;;;;;;5111244;28;20582;-79
2022/08/11 11:04:03;;;;;;;1.75;1.65;;;;;;;;;;5111864;28;20195;-78
2022/08/11 11:06:36;;;;;;;1.90;1.80;;;;;;;;;;5112285;28;20206;-79
2022/08/11 11:09:05;;;;;;;1.92;1.80;;;;;;;;;;5111202;28;20219;-79
2022/08/11 11:22:41;;;;;;;2.40;2.20;;;;;;;;;;5105448;28;20207;-79
2022/08/11 11:25:22;;;;;;;6.15;2.03;;;;;;;;;;5111498;28;20282;-79
2022/08/11 11:27:57;;;;;;;4.88;2.15;;;;;;;;;;5111863;28;20275;-79
2022/08/11 11:30:28;;;;;;;6.60;2.50;;;;;;;;;;5110465;28;20653;-79
2022/08/11 11:33:03;;;;;;;4.03;2.65;;;;;;;;;;5111300;28;20286;-78
2022/08/11 11:35:37;;;;;;;6.78;2.42;;;;;;;;;;5092751;28;20286;-79
2022/08/11 11:38:08;;;;;;;5.03;2.58;;;;;;;;;;5111531;28;20195;-78
2022/08/11 11:40:36;;;;;;;3.88;1.90;;;;;;;;;;5110777;28;20270;-79
2022/08/11 11:43:04;;;;;;;2.00;1.75;;;;;;;;;;5111842;28;20200;-78
2022/08/11 11:45:31;;;;;;;3.58;2.00;;;;;;;;;;5111297;28;20207;-79
2022/08/11 11:47:59;;;;;;;4.43;2.10;;;;;;;;;;5110631;28;20711;-79
2022/08/11 11:50:28;;;;;;;4.65;1.88;;;;;;;;;;5110913;28;20195;-79
2022/08/11 11:52:58;;;;;;;1.95;1.85;;;;;;;;;;5111044;28;20203;-79
2022/08/11 11:55:26;;;;;;;2.10;2.00;;;;;;;;;;5113938;28;20204;-78
2022/08/11 12:03:24;;;;;;;3.15;2.17;;;;;;;;;;5114212;28;20215;-79
2022/08/11 12:05:52;;;;;;;2.13;2.03;;;;;;;;;;5115475;28;20236;-79
2022/08/11 12:08:21;;;;;;;2.10;2.00;;;;;;;;;;5114572;28;20223;-79
2022/08/11 12:13:39;;;;;;;2.58;2.03;;;;;;;;;;5115375;28;20203;-78
2022/08/11 12:13:42;;;;;;;2.42;2.22;;;;;;;;;;5100226;28;20693;-78
2022/08/11 12:16:10;;;;;;;5.43;2.20;;;;;;;;;;5113883;28;20191;-77
2022/08/11 12:18:37;;;;;;;2.17;1.77;;;;;;;;;;5114478;28;20265;-78
2022/08/11 12:21:05;;;;;;;2.42;2.28;;;;;;;;;;5114223;28;20195;-78
2022/08/11 12:29:09;;;;;;;4.57;2.25;;;;;;;;;;5114287;28;20206;-79
2022/08/11 12:31:37;;;;;;;2.05;1.90;;;;;;;;;;5114339;28;20233;-79
2022/08/11 12:34:06;;;;;;;2.47;1.63;;;;;;;;;;5114131;28;20211;-78
2022/08/11 12:36:38;;;;;;;5.63;1.95;;;;;;;;;;5114212;28;20196;-78
2022/08/11 12:39:11;;;;;;;3.08;2.10;;;;;;;;;;5114609;28;20215;-79
2022/08/11 12:47:19;;;;;;;2.75;1.90;;;;;;;;;;5102767;28;20328;-79
2022/08/11 12:52:42;;;;;;;2.00;1.90;;;;;;;;;;5114435;28;20576;-79
2022/08/11 12:55:12;;;;;;;2.17;1.70;;;;;;;;;;5113657;28;20215;-79
2022/08/11 13:05:59;;;;;;;3.25;2.33;;;;;;;;;;5112987;28;20245;-79
2022/08/11 13:08:28;;;;;;;3.13;2.05;;;;;;;;;;5113349;28;20231;-79
2022/08/11 13:13:43;;;;;;;3.42;2.25;;;;;;;;;;5113469;28;20584;-78
2022/08/11 13:16:10;;;;;;;2.20;2.00;;;;;;;;;;5113711;28;20576;-79
2022/08/11 13:18:38;;;;;;;2.92;1.80;;;;;;;;;;5113342;28;20282;-78
2022/08/11 13:21:05;;;;;;;2.00;1.90;;;;;;;;;;5114598;28;20204;-78
2022/08/11 13:23:34;;;;;;;2.00;1.90;;;;;;;;;;5112208;28;20192;-78
2022/08/11 13:26:02;;;;;;;1.77;1.67;;;;;;;;;;5114252;28;20199;-78
2022/08/11 13:28:29;;;;;;;1.85;1.75;;;;;;;;;;5112811;28;20203;-78
2022/08/11 13:31:12;;;;;;;2.38;2.15;;;;;;;;;;5112505;28;20245;-79
2022/08/11 13:33:41;;;;;;;4.07;1.92;;;;;;;;;;5112834;28;20251;-78
2022/08/11 13:36:09;;;;;;;2.55;2.00;;;;;;;;;;5112701;28;20576;-79
2022/08/11 13:38:36;;;;;;;3.15;2.10;;;;;;;;;;5113033;28;20195;-78
2022/08/11 13:41:36;;;;;;;5.28;2.13;;;;;;;;;;5113130;28;20206;-78
2022/08/11 13:43:53;;;;;;;2.28;1.73;;;;;;;;;;5112893;28;20282;-77
2022/08/11 13:46:23;;;;;;;1.98;1.80;;;;;;;;;;5113025;28;20266;-79
2022/08/11 13:48:51;;;;;;;2.63;1.88;;;;;;;;;;5112730;28;20296;-78
2022/08/11 13:51:31;;;;;;;6.07;2.75;;;;;;;;;;5113744;28;20576;-78
2022/08/11 13:53:58;;;;;;;11.20;3.65;;;;;;;;;;5113027;28;20651;-78
2022/08/11 13:56:27;;;;;;;2.90;2.13;;;;;;;;;;5113331;28;20199;-78
2022/08/11 13:58:55;;;;;;;2.65;1.83;;;;;;;;;;5113059;28;20203;-78
2022/08/11 14:01:24;;;;;;;6.43;1.85;;;;;;;;;;5112167;28;20226;-78
2022/08/11 14:03:53;;;;;;;2.58;2.38;;;;;;;;;;5111857;28;20653;-80
2022/08/11 14:06:20;;;;;;;3.22;2.08;;;;;;;;;;5112741;28;20599;-78
2022/08/11 14:08:48;;;;;;;2.10;1.90;;;;;;;;;;5112971;28;20203;-78
2022/08/11 14:14:03;;;;;;;2.03;1.92;;;;;;;;;;5112095;28;20319;-79
2022/08/11 14:16:35;;;;;;;2.80;1.98;;;;;;;;;;5112257;28;20566;-78
2022/08/11 14:19:05;;;;;;;2.08;1.95;;;;;;;;;;5112066;28;20252;-78
2022/08/11 14:24:21;;;;;;;8.40;2.30;;;;;;;;;;5112937;28;20252;-78
2022/08/11 14:26:50;;;;;;;1.90;1.80;;;;;;;;;;5110819;28;20633;-78
2022/08/11 14:29:20;;;;;;;3.35;2.33;;;;;;;;;;5112147;28;20199;-79
2022/08/11 14:31:51;;;;;;;3.47;2.50;;;;;;;;;;5111742;28;20196;-79
2022/08/11 14:34:20;;;;;;;7.30;2.80;;;;;;;;;;5111961;28;20226;-79
2022/08/11 14:36:49;;;;;;;2.20;2.10;;;;;;;;;;5111276;28;20277;-79
2022/08/11 14:39:18;;;;;;;1.95;1.80;;;;;;;;;;5111463;28;20199;-79
2022/08/11 14:47:19;;;;;;;1.70;1.60;;;;;;;;;;5111742;28;20688;-79
2022/08/11 14:49:46;;;;;;;3.05;2.42;;;;;;;;;;5111800;28;20200;-79
2022/08/11 14:52:15;;;;;;;3.40;2.00;;;;;;;;;;5111620;28;20200;-78
2022/08/11 14:57:28;;;;;;;2.53;2.33;;;;;;;;;;5111475;28;20203;-79
2022/08/11 14:59:59;;;;;;;3.90;1.98;;;;;;;;;;5111622;28;20574;-79
2022/08/11 15:05:10;;;;;;;2.20;2.00;;;;;;;;;;5100368;28;20207;-78
2022/08/11 15:07:37;;;;;;;2.03;1.75;;;;;;;;;;5110915;28;20195;-79
2022/08/11 15:10:06;;;;;;;3.88;2.03;;;;;;;;;;5111288;28;20199;-78
2022/08/11 15:12:34;;;;;;;2.17;2.08;;;;;;;;;;5110840;28;20206;-82
2022/08/11 15:18:04;;;;;;;2.30;2.15;;;;;;;;;;5048744;28;20765;-81
2022/08/11 15:26:02;;;;;;;2.10;1.90;;;;;;;;;;5111198;28;20202;-80
2022/08/11 15:45:46;;;;;;;2.38;2.17;;;;;;;;;;5115414;28;20252;-81
2022/08/11 15:47:57;;;;;;;2.22;2.13;;;;;;;;;;5115037;28;20206;-81
2022/08/11 15:50:28;;;;;;;2.47;2.28;;;;;;;;;;5112652;28;20199;-81
2022/08/11 15:52:59;;;;;;;2.15;1.98;;;;;;;;;;5106365;28;20202;-81
2022/08/11 15:55:28;;;;;;;2.72;2.53;;;;;;;;;;5114494;28;20219;-81
2022/08/11 16:06:17;;;;;;;2.10;2.00;;;;;;;;;;5114479;28;21054;-81
2022/08/11 16:08:45;;;;;;;2.90;2.58;;;;;;;;;;5114791;28;20248;-81
2022/08/11 16:11:12;;;;;;;5.28;2.42;;;;;;;;;;5114747;28;20194;-81
2022/08/11 16:16:23;;;;;;;2.15;1.95;;;;;;;;;;5114248;28;20206;-81
2022/08/11 16:18:55;;;;;;;2.65;2.45;;;;;;;;;;5114427;28;20700;-82
2022/08/11 16:21:24;;;;;;;2.00;1.90;;;;;;;;;;5114221;28;20276;-81
2022/08/11 16:23:52;;;;;;;6.22;3.17;;;;;;;;;;5114311;28;20187;-81
2022/08/11 16:26:22;;;;;;;2.75;2.55;;;;;;;;;;5114082;28;20207;-81
2022/08/11 16:28:50;;;;;;;2.55;2.33;;;;;;;;;;5114034;28;20196;-81
2022/08/11 16:31:17;;;;;;;4.00;2.38;;;;;;;;;;5114286;28;20195;-81
2022/08/11 16:33:44;;;;;;;2.40;2.25;;;;;;;;;;5114627;28;20297;-81
2022/08/11 16:38:59;;;;;;;2.08;1.95;;;;;;;;;;5114239;28;20222;-85
2022/08/11 16:47:02;;;;;;;2.78;1.88;;;;;;;;;;5115351;28;20618;-89
2022/08/11 16:49:32;;;;;;;2.40;2.20;;;;;;;;;;5115034;28;20194;-88
2022/08/11 16:52:03;;;;;;;2.53;2.20;;;;;;;;;;5114884;28;20662;-90
2022/08/11 16:54:31;;;;;;;2.80;2.03;;;;;;;;;;5114679;28;20302;-81
2022/08/11 16:59:12;;;;;;;2.30;2.10;;;;;;;;;;5102494;28;20283;-81
2022/08/11 16:59:45;;;;;;;2.67;2.33;;;;;;;;;;5093623;28;20243;-83
2022/08/11 17:13:07;;;;;;;2.80;2.35;;;;;;;;;;5107022;28;20343;-84
2022/08/11 17:13:38;;;;;;;3.43;1.97;;;;;;;;;;5113419;28;20202;-84
2022/08/11 17:16:10;;;;;;;2.08;1.98;;;;;;;;;;5113724;28;20226;-84
2022/08/11 17:18:45;;;;;;;3.70;2.07;;;;;;;;;;5113579;28;20188;-84
2022/08/11 17:21:16;;;;;;;2.50;2.30;;;;;;;;;;5111014;28;20191;-84
2022/08/11 17:23:49;;;;;;;4.25;2.33;;;;;;;;;;5102211;28;20203;-84
2022/08/11 17:26:19;;;;;;;2.30;2.10;;;;;;;;;;5113288;28;20191;-84
2022/08/11 17:28:50;;;;;;;9.30;3.07;;;;;;;;;;5112985;28;20196;-84
2022/08/11 17:36:52;;;;;;;2.23;1.87;;;;;;;;;;5113018;28;20232;-83
2022/08/11 17:39:21;;;;;;;2.67;2.17;;;;;;;;;;5113136;28;20207;-85
2022/08/11 17:50:03;;;;;;;3.30;1.97;;;;;;;;;;5104074;28;20255;-83
2022/08/11 18:00:45;;;;;;;2.30;2.10;;;;;;;;;;5112943;28;20230;-83
2022/08/11 18:03:31;;;;;;;2.03;1.93;;;;;;;;;;5112076;28;20191;-83
2022/08/11 18:06:03;;;;;;;2.20;2.10;;;;;;;;;;5112002;28;20745;-83
